Time;durP1;ratioP1;P1;durP2;ratioP2;P2;SDS_P1;SDS_P2;PMS_P1;PMS_P2;Temp;Humidity;BMP_temperature;BMP_pressure;BME280_temperature;BME280_humidity;BME280_pressure;Samples;Min_cycle;Max_cycle;Signal;HPM_P1;HPM_P2
2021/08/15 00:00:13;;;;;;;9.48;4.50;;;22.50;66.50;;;;;;5063642;28;20032;-63
2021/08/15 00:02:40;;;;;;;9.05;4.38;;;22.40;67.50;;;;;;5052939;28;20037;-63
2021/08/15 00:05:07;;;;;;;7.90;3.80;;;22.20;68.40;;;;;;5050419;28;20094;-63
2021/08/15 00:07:33;;;;;;;8.73;4.15;;;22.10;69.00;;;;;;5064208;28;20082;-63
2021/08/15 00:09:59;;;;;;;5.75;3.40;;;22.00;69.40;;;;;;5049173;28;20021;-63
2021/08/15 00:12:24;;;;;;;6.93;4.10;;;21.90;69.60;;;;;;5052546;28;20051;-63
2021/08/15 00:14:50;;;;;;;8.48;4.20;;;21.90;70.30;;;;;;5067015;28;20077;-63
2021/08/15 00:17:15;;;;;;;8.63;3.80;;;21.80;70.70;;;;;;5070607;28;20025;-63
2021/08/15 00:19:59;;;;;;;6.80;3.30;;;21.70;71.00;;;;;;5067196;28;20108;-63
2021/08/15 00:22:43;;;;;;;9.63;4.13;;;21.60;71.70;;;;;;5052894;28;20106;-63
2021/08/15 00:25:28;;;;;;;;;;;21.50;72.20;;;;;;5054769;28;20051;-63
2021/08/15 00:28:12;;;;;;;8.77;3.33;;;21.40;72.10;;;;;;5056332;28;19916;-63
2021/08/15 00:30:56;;;;;;;7.22;4.35;;;21.30;72.60;;;;;;5070041;28;20051;-63
2021/08/15 00:33:40;;;;;;;9.02;3.42;;;21.20;73.50;;;;;;5071324;28;20067;-63
2021/08/15 00:36:24;;;;;;;9.93;3.67;;;21.10;73.40;;;;;;5055588;28;20577;-63
2021/08/15 00:39:08;;;;;;;8.77;3.87;;;21.10;73.80;;;;;;5060394;28;20039;-63
2021/08/15 00:41:37;;;;;;;7.15;3.38;;;21.10;74.00;;;;;;5071211;28;20341;-63
2021/08/15 00:44:02;;;;;;;6.68;3.28;;;21.10;74.50;;;;;;5069830;28;20641;-62
2021/08/15 00:46:28;;;;;;;5.10;3.08;;;21.10;74.60;;;;;;5067339;28;20032;-62
2021/08/15 00:48:54;;;;;;;10.10;4.55;;;21.00;74.80;;;;;;5061910;28;20059;-62
2021/08/15 00:51:19;;;;;;;6.95;3.67;;;21.00;75.10;;;;;;5051342;28;20591;-62
2021/08/15 00:53:45;;;;;;;10.25;3.92;;;21.00;75.40;;;;;;5050429;28;20039;-62
2021/08/15 00:56:11;;;;;;;8.25;3.42;;;21.00;75.70;;;;;;5070667;28;20035;-62
2021/08/15 00:58:37;;;;;;;12.57;3.70;;;20.90;75.80;;;;;;5069615;28;20028;-63
2021/08/15 01:01:06;;;;;;;7.00;3.58;;;20.90;75.90;;;;;;5070734;28;20104;-63
2021/08/15 01:03:32;;;;;;;7.35;3.67;;;20.80;76.10;;;;;;5069641;28;20483;-62
2021/08/15 01:05:58;;;;;;;8.10;3.45;;;20.80;76.20;;;;;;5070240;28;20033;-62
2021/08/15 01:08:24;;;;;;;6.60;3.55;;;20.80;76.30;;;;;;5070371;28;20043;-63
2021/08/15 01:10:49;;;;;;;8.38;3.72;;;20.80;76.40;;;;;;5070470;28;20131;-62
2021/08/15 01:13:15;;;;;;;6.13;3.50;;;20.80;76.50;;;;;;5054185;28;20032;-62
2021/08/15 01:15:41;;;;;;;10.65;3.30;;;20.70;76.50;;;;;;5060334;28;20028;-62
2021/08/15 01:18:21;;;;;;;7.93;3.20;;;20.70;76.60;;;;;;5055384;28;20388;-62
2021/08/15 01:20:46;;;;;;;9.95;3.75;;;20.60;76.60;;;;;;5069803;28;20075;-63
2021/08/15 01:23:12;;;;;;;8.57;3.78;;;20.60;76.60;;;;;;5054835;28;20045;-62
2021/08/15 01:25:38;;;;;;;7.57;3.08;;;20.60;76.60;;;;;;5051048;28;20079;-63
2021/08/15 01:28:04;;;;;;;6.65;3.45;;;20.60;76.60;;;;;;5062285;28;20024;-62
2021/08/15 01:30:30;;;;;;;7.53;3.53;;;20.50;76.90;;;;;;5070751;28;20028;-62
2021/08/15 01:32:55;;;;;;;5.65;3.10;;;20.40;77.00;;;;;;5037629;28;20056;-62
2021/08/15 01:35:21;;;;;;;7.63;3.30;;;20.40;77.10;;;;;;5070698;28;20061;-62
2021/08/15 01:37:52;;;;;;;9.23;3.80;;;20.40;77.20;;;;;;5057082;28;20039;-62
2021/08/15 01:40:18;;;;;;;6.63;3.80;;;20.40;77.20;;;;;;5068752;28;20079;-62
2021/08/15 01:42:43;;;;;;;7.60;3.13;;;20.40;77.40;;;;;;5055736;28;20064;-62
2021/08/15 01:45:10;;;;;;;7.05;3.60;;;20.40;77.60;;;;;;5042886;28;20478;-62
2021/08/15 01:47:36;;;;;;;7.00;3.78;;;20.40;77.80;;;;;;5069922;28;20118;-62
2021/08/15 01:50:01;;;;;;;6.32;3.78;;;20.30;77.80;;;;;;5068634;28;20123;-62
2021/08/15 01:52:29;;;;;;;5.82;2.92;;;20.40;78.00;;;;;;5070475;28;20049;-62
2021/08/15 01:54:54;;;;;;;5.28;3.42;;;20.40;78.20;;;;;;5069529;28;20036;-62
2021/08/15 01:57:19;;;;;;;5.30;3.25;;;20.40;78.30;;;;;;5069088;28;20032;-62
2021/08/15 01:59:45;;;;;;;7.05;3.20;;;20.30;78.70;;;;;;5054580;28;20099;-62
2021/08/15 02:02:10;;;;;;;8.43;3.53;;;20.30;78.80;;;;;;5066036;28;20123;-62
2021/08/15 02:04:36;;;;;;;6.80;3.70;;;20.30;78.90;;;;;;5069216;28;20024;-63
2021/08/15 02:07:02;;;;;;;7.57;3.58;;;20.30;79.00;;;;;;5070038;28;20036;-63
2021/08/15 02:09:28;;;;;;;6.30;3.05;;;20.30;79.20;;;;;;5070156;28;20025;-62
2021/08/15 02:11:53;;;;;;;9.05;3.30;;;20.30;79.40;;;;;;5051439;28;20043;-63
2021/08/15 02:14:37;;;;;;;8.20;3.65;;;20.30;79.50;;;;;;5059457;28;20040;-63
2021/08/15 02:17:21;;;;;;;7.25;2.92;;;20.30;79.50;;;;;;5063721;28;20101;-62
2021/08/15 02:20:06;;;;;;;11.87;4.70;;;20.30;79.70;;;;;;5053991;28;20203;-62
2021/08/15 02:22:50;;;;;;;9.35;3.30;;;20.20;79.70;;;;;;5070417;28;20778;-62
2021/08/15 02:25:36;;;;;;;8.57;3.60;;;20.20;80.00;;;;;;5070830;28;20134;-62
2021/08/15 02:28:20;;;;;;;7.70;3.80;;;20.20;80.00;;;;;;5057606;28;20044;-62
2021/08/15 02:31:04;;;;;;;9.93;3.90;;;20.20;80.30;;;;;;5065791;28;20047;-62
2021/08/15 02:33:48;;;;;;;9.27;4.40;;;20.20;80.40;;;;;;5070851;28;20031;-63
2021/08/15 02:36:32;;;;;;;9.00;3.77;;;20.20;80.80;;;;;;5064149;28;20508;-62
2021/08/15 02:39:16;;;;;;;6.15;3.97;;;20.20;80.70;;;;;;5051770;28;20259;-63
2021/08/15 02:42:01;;;;;;;7.80;4.33;;;20.20;80.90;;;;;;5069288;28;20039;-62
2021/08/15 02:44:45;;;;;;;7.53;4.30;;;20.10;81.30;;;;;;5069301;28;20032;-62
2021/08/15 02:47:29;;;;;;;7.95;3.63;;;20.10;81.40;;;;;;5067879;28;20035;-62
2021/08/15 02:50:15;;;;;;;9.03;3.90;;;20.10;81.00;;;;;;5061343;28;20073;-62
2021/08/15 02:52:59;;;;;;;5.88;3.92;;;20.10;81.50;;;;;;5067855;28;20317;-62
2021/08/15 02:55:43;;;;;;;7.85;3.70;;;20.10;81.90;;;;;;5072477;28;20086;-62
2021/08/15 02:58:27;;;;;;;6.80;3.63;;;20.10;82.10;;;;;;5053926;28;20043;-62
2021/08/15 03:01:11;;;;;;;7.47;3.10;;;20.20;82.00;;;;;;5055221;28;20039;-62
2021/08/15 03:03:55;;;;;;;8.48;3.83;;;20.10;81.90;;;;;;5054012;28;20278;-62
2021/08/15 03:06:41;;;;;;;7.97;3.28;;;20.10;82.50;;;;;;5070992;28;20098;-62
2021/08/15 03:09:25;;;;;;;6.57;3.60;;;20.10;82.50;;;;;;5073495;28;20108;-62
2021/08/15 03:12:10;;;;;;;9.40;4.50;;;20.10;82.60;;;;;;5064819;28;20455;-63
2021/08/15 03:14:54;;;;;;;9.40;4.13;;;20.00;82.80;;;;;;5072998;28;20404;-62
2021/08/15 03:17:39;;;;;;;8.98;3.63;;;20.00;83.00;;;;;;5071127;28;20161;-62
2021/08/15 03:20:24;;;;;;;8.05;3.88;;;19.90;83.20;;;;;;5071856;28;20078;-62
2021/08/15 03:23:08;;;;;;;7.40;3.93;;;19.90;83.60;;;;;;5072590;28;20039;-62
2021/08/15 03:25:52;;;;;;;7.30;4.15;;;19.90;83.70;;;;;;5063148;28;20112;-62
2021/08/15 03:28:36;;;;;;;8.67;3.50;;;19.90;84.10;;;;;;5053643;28;20039;-62
2021/08/15 03:31:20;;;;;;;8.57;4.37;;;19.90;84.30;;;;;;5057267;28;20047;-62
2021/08/15 03:34:04;;;;;;;7.07;3.42;;;19.90;84.40;;;;;;5053526;28;20078;-63
2021/08/15 03:36:49;;;;;;;8.23;4.28;;;19.90;84.40;;;;;;5061277;28;20539;-62
2021/08/15 03:39:33;;;;;;;9.88;4.38;;;20.00;84.40;;;;;;5073507;28;20031;-62
2021/08/15 03:42:17;;;;;;;8.45;3.50;;;20.00;84.50;;;;;;5071875;28;20071;-62
2021/08/15 03:45:02;;;;;;;8.35;3.90;;;19.90;84.50;;;;;;5072834;28;20086;-62
2021/08/15 03:47:46;;;;;;;5.50;3.55;;;19.90;84.70;;;;;;5070721;28;20102;-63
2021/08/15 03:50:30;;;;;;;8.70;4.10;;;19.90;85.00;;;;;;5053563;28;20064;-62
2021/08/15 03:53:14;;;;;;;6.90;3.80;;;19.90;85.00;;;;;;5055788;28;20040;-62
2021/08/15 03:55:58;;;;;;;7.13;3.55;;;19.90;85.30;;;;;;5072251;28;20559;-62
2021/08/15 03:58:42;;;;;;;8.93;4.03;;;19.90;85.20;;;;;;5067435;28;20119;-66
2021/08/15 04:01:26;;;;;;;7.05;3.40;;;20.00;85.30;;;;;;5065169;28;20337;-66
2021/08/15 04:04:10;;;;;;;6.50;3.88;;;19.90;85.40;;;;;;5061901;28;20040;-66
2021/08/15 04:06:54;;;;;;;7.43;3.92;;;19.90;85.50;;;;;;5060256;28;20043;-66
2021/08/15 04:09:38;;;;;;;8.95;3.95;;;19.90;85.80;;;;;;5070720;28;20439;-66
2021/08/15 04:12:22;;;;;;;7.00;3.73;;;19.90;86.00;;;;;;5071237;28;20056;-66
2021/08/15 04:15:07;;;;;;;7.17;3.93;;;19.80;86.10;;;;;;5067671;28;20112;-65
2021/08/15 04:17:51;;;;;;;7.05;3.65;;;19.80;86.50;;;;;;5053991;28;20327;-66
2021/08/15 04:20:37;;;;;;;7.68;3.53;;;19.80;86.50;;;;;;5051893;28;20119;-66
2021/08/15 04:23:23;;;;;;;7.18;3.67;;;19.80;86.80;;;;;;5069828;28;20059;-66
2021/08/15 04:26:09;;;;;;;7.20;3.60;;;19.80;87.00;;;;;;5069832;28;20560;-66
2021/08/15 04:28:54;;;;;;;6.13;3.60;;;19.90;87.00;;;;;;5052852;28;20029;-67
2021/08/15 04:31:41;;;;;;;13.77;4.63;;;19.90;87.10;;;;;;5053762;28;20039;-67
2021/08/15 04:34:27;;;;;;;10.43;3.95;;;19.90;87.30;;;;;;5057034;28;20097;-67
2021/08/15 04:37:13;;;;;;;5.70;3.53;;;19.90;87.10;;;;;;5071667;28;20028;-67
2021/08/15 04:39:59;;;;;;;8.60;4.10;;;19.90;87.20;;;;;;5062496;28;20032;-67
2021/08/15 04:42:45;;;;;;;8.75;3.97;;;19.90;87.40;;;;;;5065453;28;20094;-67
2021/08/15 04:45:31;;;;;;;8.15;3.95;;;20.00;87.80;;;;;;5052746;28;20036;-66
2021/08/15 04:48:17;;;;;;;6.43;3.63;;;20.00;87.80;;;;;;5071490;28;20070;-66
2021/08/15 04:51:03;;;;;;;8.68;4.07;;;20.10;88.00;;;;;;5054215;28;20041;-66
2021/08/15 04:53:48;;;;;;;9.88;4.03;;;20.10;87.80;;;;;;5055369;28;20072;-67
2021/08/15 04:56:34;;;;;;;6.07;3.58;;;20.10;88.00;;;;;;5064343;28;20029;-66
2021/08/15 04:59:20;;;;;;;9.18;3.95;;;20.10;87.90;;;;;;5063188;28;20072;-67
2021/08/15 05:02:06;;;;;;;9.50;3.95;;;20.20;88.00;;;;;;5069139;28;20082;-67
2021/08/15 05:04:52;;;;;;;6.82;4.05;;;20.20;88.00;;;;;;5069702;28;20032;-67
2021/08/15 05:07:38;;;;;;;7.35;3.72;;;20.30;88.00;;;;;;5064951;28;20043;-67
2021/08/15 05:10:23;;;;;;;7.68;3.70;;;20.30;88.00;;;;;;5070210;28;20037;-67
2021/08/15 05:13:10;;;;;;;6.30;3.65;;;20.30;87.70;;;;;;5068872;28;20024;-67
2021/08/15 05:15:56;;;;;;;6.53;4.10;;;20.40;87.80;;;;;;5054455;28;20101;-67
2021/08/15 05:18:42;;;;;;;7.32;3.97;;;20.40;87.60;;;;;;5054341;28;20182;-67
2021/08/15 05:21:28;;;;;;;7.35;3.88;;;20.40;87.40;;;;;;5054193;28;20032;-66
2021/08/15 05:24:14;;;;;;;7.88;3.63;;;20.50;87.30;;;;;;5051843;28;20025;-66
2021/08/15 05:26:59;;;;;;;7.10;4.25;;;20.60;87.10;;;;;;5059609;28;20028;-66
2021/08/15 05:29:45;;;;;;;11.50;4.40;;;20.50;86.80;;;;;;5051510;28;20025;-67
2021/08/15 05:32:31;;;;;;;6.75;3.35;;;20.60;86.70;;;;;;5064974;28;20036;-66
2021/08/15 05:35:17;;;;;;;9.63;4.05;;;20.70;86.60;;;;;;5056152;28;20029;-66
2021/08/15 05:38:02;;;;;;;9.85;4.38;;;20.70;86.60;;;;;;5068183;28;20028;-67
2021/08/15 05:40:48;;;;;;;8.00;3.83;;;20.80;86.60;;;;;;5067839;28;20112;-66
2021/08/15 05:43:34;;;;;;;9.55;4.05;;;20.80;86.50;;;;;;5060684;28;20035;-66
2021/08/15 05:46:20;;;;;;;8.50;4.70;;;20.80;86.50;;;;;;5050333;28;20045;-66
2021/08/15 05:49:06;;;;;;;12.70;4.65;;;20.80;86.60;;;;;;5064447;28;20028;-66
2021/08/15 05:51:52;;;;;;;7.50;4.05;;;20.90;86.70;;;;;;5068750;28;20044;-66
2021/08/15 05:54:37;;;;;;;8.18;3.97;;;20.90;86.40;;;;;;5037115;28;20021;-66
2021/08/15 05:57:23;;;;;;;7.63;3.70;;;21.00;86.40;;;;;;5050883;28;20033;-66
2021/08/15 06:00:09;;;;;;;10.25;3.75;;;21.00;86.20;;;;;;5051103;28;20048;-67
2021/08/15 06:02:55;;;;;;;6.97;3.42;;;21.00;86.20;;;;;;5067700;28;20044;-66
2021/08/15 06:05:41;;;;;;;10.80;3.97;;;21.10;85.50;;;;;;5065388;28;20036;-67
2021/08/15 06:08:26;;;;;;;8.90;4.32;;;21.20;85.60;;;;;;5056461;28;20063;-67
2021/08/15 06:11:15;;;;;;;9.23;4.47;;;21.20;86.00;;;;;;5062216;28;20040;-66
2021/08/15 06:14:02;;;;;;;7.97;4.35;;;21.20;85.40;;;;;;5066535;28;20396;-66
2021/08/15 06:16:46;;;;;;;8.77;4.45;;;21.30;85.30;;;;;;5068860;28;20071;-66
2021/08/15 06:19:31;;;;;;;6.17;3.57;;;21.30;85.60;;;;;;5059147;28;20120;-67
2021/08/15 06:22:15;;;;;;;;;;;21.40;85.10;;;;;;5070074;28;20043;-67
2021/08/15 06:25:00;;;;;;;7.35;3.42;;;21.40;85.00;;;;;;5054495;28;19915;-66
2021/08/15 06:27:44;;;;;;;9.43;3.70;;;21.40;85.10;;;;;;5067137;28;20028;-66
2021/08/15 06:30:28;;;;;;;7.28;3.67;;;21.40;84.70;;;;;;5074000;28;20038;-66
2021/08/15 06:33:12;;;;;;;7.57;3.90;;;21.50;84.90;;;;;;5050577;28;20067;-67
2021/08/15 06:35:56;;;;;;;7.67;3.73;;;21.50;84.60;;;;;;5055042;28;20595;-66
2021/08/15 06:38:40;;;;;;;9.23;4.20;;;21.60;84.60;;;;;;5065782;28;20379;-66
2021/08/15 06:41:24;;;;;;;8.20;4.32;;;21.60;84.60;;;;;;5059281;28;20158;-66
2021/08/15 06:44:08;;;;;;;8.70;3.80;;;21.60;84.50;;;;;;5060331;28;20550;-66
2021/08/15 06:46:52;;;;;;;7.72;3.17;;;21.70;84.60;;;;;;5061856;28;20133;-66
2021/08/15 06:49:36;;;;;;;6.93;3.47;;;21.80;84.50;;;;;;5074125;28;20090;-67
2021/08/15 06:52:20;;;;;;;8.52;3.70;;;21.90;84.30;;;;;;5072433;28;20444;-61
2021/08/15 06:55:05;;;;;;;6.65;3.25;;;21.90;84.00;;;;;;5070908;28;20043;-65
2021/08/15 06:57:46;;;;;;;7.18;3.28;;;22.00;84.00;;;;;;5061016;28;20498;-64
2021/08/15 07:00:12;;;;;;;7.72;3.53;;;22.10;83.90;;;;;;5058453;28;20151;-64
2021/08/15 07:02:39;;;;;;;7.53;3.22;;;22.20;83.50;;;;;;5064199;28;20056;-66
2021/08/15 07:05:07;;;;;;;10.82;3.65;;;22.20;83.40;;;;;;5070515;28;20093;-65
2021/08/15 07:07:32;;;;;;;9.05;4.18;;;22.30;83.60;;;;;;5059083;28;20025;-64
2021/08/15 07:09:58;;;;;;;10.77;4.07;;;22.30;83.50;;;;;;5069711;28;20166;-64
2021/08/15 07:12:23;;;;;;;9.20;3.72;;;22.40;83.10;;;;;;5061380;28;20134;-64
2021/08/15 07:14:49;;;;;;;9.35;3.70;;;22.50;83.30;;;;;;5070056;28;20611;-64
2021/08/15 07:17:14;;;;;;;7.60;3.85;;;22.60;83.10;;;;;;5070268;28;20040;-64
2021/08/15 07:19:40;;;;;;;9.77;3.78;;;22.70;83.20;;;;;;5062619;28;20385;-65
2021/08/15 07:22:05;;;;;;;10.05;3.55;;;22.80;83.10;;;;;;5070259;28;20159;-65
2021/08/15 07:24:31;;;;;;;10.10;4.93;;;22.90;82.80;;;;;;5063623;28;20481;-65
2021/08/15 07:26:57;;;;;;;9.20;4.00;;;23.00;82.80;;;;;;5064044;28;20606;-65
2021/08/15 07:29:23;;;;;;;9.43;4.38;;;23.00;82.20;;;;;;5060225;28;20474;-65
2021/08/15 07:31:48;;;;;;;7.40;4.43;;;23.10;82.20;;;;;;5066819;28;20037;-65
2021/08/15 07:34:14;;;;;;;9.05;3.70;;;23.20;82.10;;;;;;5063570;28;20028;-65
2021/08/15 07:36:39;;;;;;;9.75;3.92;;;23.30;82.10;;;;;;5069135;28;20086;-65
2021/08/15 07:39:05;;;;;;;9.35;3.58;;;23.30;81.10;;;;;;5067959;28;20059;-64
2021/08/15 07:41:30;;;;;;;6.00;3.55;;;23.30;80.40;;;;;;5054061;28;20400;-65
2021/08/15 07:43:56;;;;;;;7.18;3.40;;;23.40;80.00;;;;;;5065760;28;20028;-65
2021/08/15 07:46:21;;;;;;;5.65;3.10;;;23.40;79.10;;;;;;5059771;28;20036;-65
2021/08/15 07:48:47;;;;;;;7.65;3.30;;;23.40;79.10;;;;;;5054882;28;20032;-65
2021/08/15 07:51:12;;;;;;;6.85;3.55;;;23.40;79.20;;;;;;5068376;28;20063;-65
2021/08/15 07:53:38;;;;;;;7.35;3.47;;;23.50;79.40;;;;;;5054101;28;20033;-65
2021/08/15 07:56:04;;;;;;;7.00;3.45;;;23.50;79.00;;;;;;5059920;28;20079;-65
2021/08/15 07:58:29;;;;;;;7.90;4.10;;;23.50;79.10;;;;;;5064378;28;20408;-65
2021/08/15 08:00:56;;;;;;;8.30;3.90;;;23.60;78.90;;;;;;5058705;28;20491;-65
2021/08/15 08:03:21;;;;;;;7.78;3.90;;;23.60;78.30;;;;;;5069837;28;20079;-66
2021/08/15 08:05:47;;;;;;;6.18;4.05;;;23.60;78.40;;;;;;5070117;28;20052;-64
2021/08/15 08:08:13;;;;;;;8.57;3.92;;;23.70;78.70;;;;;;5067450;28;20123;-65
2021/08/15 08:10:39;;;;;;;7.20;3.70;;;23.70;79.70;;;;;;5062453;28;20112;-65
2021/08/15 08:13:09;;;;;;;6.72;3.55;;;23.70;78.50;;;;;;5059877;28;20044;-64
2021/08/15 08:15:53;;;;;;;5.15;3.25;;;23.70;77.80;;;;;;5060013;28;20389;-65
2021/08/15 08:18:37;;;;;;;5.20;3.15;;;23.70;78.10;;;;;;5062340;28;20179;-65
2021/08/15 08:21:21;;;;;;;6.78;3.10;;;23.80;77.10;;;;;;5062486;28;20154;-65
2021/08/15 08:24:07;;;;;;;8.30;4.10;;;23.80;77.10;;;;;;5059485;28;20028;-66
2021/08/15 08:26:51;;;;;;;7.25;3.47;;;23.80;77.30;;;;;;5066543;28;22730;-66
2021/08/15 08:29:35;;;;;;;10.48;3.85;;;23.80;76.80;;;;;;5062991;28;20555;-65
2021/08/15 08:32:19;;;;;;;8.70;3.00;;;23.90;76.70;;;;;;5064034;28;20137;-65
2021/08/15 08:35:03;;;;;;;7.60;3.40;;;23.90;76.50;;;;;;5066649;28;20031;-65
2021/08/15 08:37:48;;;;;;;10.65;3.53;;;23.90;75.60;;;;;;5062634;28;20048;-64
2021/08/15 08:40:33;;;;;;;6.20;3.70;;;23.90;74.70;;;;;;5070380;28;20086;-65
2021/08/15 08:43:21;;;;;;;7.55;3.00;;;23.90;74.80;;;;;;5060734;28;20444;-65
2021/08/15 08:46:08;;;;;;;6.45;3.42;;;24.00;74.80;;;;;;5069533;28;20090;-64
2021/08/15 08:48:53;;;;;;;8.05;3.67;;;24.00;74.30;;;;;;5064182;28;20040;-65
2021/08/15 08:51:37;;;;;;;;;;;24.00;74.20;;;;;;5062557;28;20480;-66
2021/08/15 08:54:24;;;;;;;8.93;3.35;;;24.00;74.70;;;;;;5065898;28;20316;-65
2021/08/15 08:57:08;;;;;;;5.80;3.28;;;24.00;73.50;;;;;;5066296;28;20047;-65
2021/08/15 08:59:52;;;;;;;5.80;3.50;;;24.10;73.40;;;;;;5060230;28;20039;-65
2021/08/15 09:02:37;;;;;;;;;;;24.10;72.80;;;;;;5064947;28;20035;-64
2021/08/15 09:05:33;;;;;;;6.57;3.08;;;24.20;72.50;;;;;;5067534;28;19927;-64
2021/08/15 09:08:25;;;;;;;6.50;2.90;;;24.20;71.50;;;;;;5067912;28;20039;-64
2021/08/15 09:11:18;;;;;;;7.90;3.20;;;24.30;71.40;;;;;;5053502;28;20035;-64
2021/08/15 09:14:08;;;;;;;7.35;3.30;;;24.30;71.70;;;;;;5055134;28;20120;-64
2021/08/15 09:17:00;;;;;;;8.48;3.53;;;24.40;71.80;;;;;;5058015;28;20036;-65
2021/08/15 09:19:47;;;;;;;7.15;4.18;;;24.40;70.70;;;;;;5062691;28;20039;-65
2021/08/15 09:22:35;;;;;;;8.25;3.38;;;24.50;71.30;;;;;;5065219;28;20043;-65
2021/08/15 09:25:23;;;;;;;5.68;3.35;;;24.50;71.10;;;;;;5063625;28;20085;-63
2021/08/15 09:28:07;;;;;;;4.82;2.85;;;24.50;70.40;;;;;;5066095;28;20035;-63
2021/08/15 09:30:51;;;;;;;5.28;3.30;;;24.60;70.10;;;;;;5062424;28;20120;-64
2021/08/15 09:33:40;;;;;;;5.63;3.25;;;24.70;69.00;;;;;;5053789;28;20051;-63
2021/08/15 09:36:42;;;;;;;5.35;2.90;;;24.70;68.90;;;;;;5055249;28;20058;-63
2021/08/15 09:39:35;;;;;;;4.43;2.67;;;24.80;69.60;;;;;;5051965;28;20055;-64
2021/08/15 09:42:40;;;;;;;5.57;3.13;;;24.90;68.20;;;;;;5064273;28;20062;-64
2021/08/15 09:45:31;;;;;;;4.88;3.42;;;24.90;67.70;;;;;;5060173;28;20051;-64
2021/08/15 09:48:20;;;;;;;6.72;3.20;;;25.00;67.60;;;;;;5053071;28;22244;-66
2021/08/15 09:51:17;;;;;;;5.20;3.10;;;25.10;67.40;;;;;;5052197;28;20998;-63
2021/08/15 09:54:01;;;;;;;7.93;4.00;;;25.20;68.10;;;;;;5042401;28;20090;-63
2021/08/15 09:56:45;;;;;;;5.88;3.63;;;25.30;68.40;;;;;;5057815;28;20094;-64
2021/08/15 09:59:42;;;;;;;8.52;4.35;;;25.30;67.80;;;;;;5065978;28;20067;-63
2021/08/15 10:02:27;;;;;;;6.93;3.63;;;25.30;67.40;;;;;;5059002;28;20044;-63
2021/08/15 10:05:10;;;;;;;6.47;3.53;;;25.30;67.50;;;;;;5050674;28;20106;-63
2021/08/15 10:07:55;;;;;;;6.72;3.60;;;25.40;67.10;;;;;;5054538;28;20136;-63
2021/08/15 10:10:20;;;;;;;9.60;3.53;;;25.40;66.40;;;;;;5066691;28;20020;-63
2021/08/15 10:12:46;;;;;;;5.40;3.00;;;25.40;65.80;;;;;;5064885;28;20040;-63
2021/08/15 10:15:13;;;;;;;5.60;3.05;;;25.40;65.40;;;;;;5061517;28;20020;-63
2021/08/15 10:17:40;;;;;;;6.35;3.35;;;25.40;64.80;;;;;;5067224;28;20362;-63
2021/08/15 10:20:10;;;;;;;6.28;3.00;;;25.40;64.10;;;;;;5059559;28;20056;-63
2021/08/15 10:22:39;;;;;;;5.32;3.05;;;25.50;64.10;;;;;;5068085;28;20044;-63
2021/08/15 10:25:07;;;;;;;4.85;3.40;;;25.50;63.50;;;;;;5049190;28;20024;-63
2021/08/15 10:27:39;;;;;;;5.47;3.10;;;25.50;63.40;;;;;;5060778;28;20068;-63
2021/08/15 10:30:24;;;;;;;5.95;3.47;;;25.60;63.70;;;;;;5058437;28;20025;-63
2021/08/15 10:32:58;;;;;;;4.47;2.92;;;25.70;63.70;;;;;;5061174;28;20029;-63
2021/08/15 10:35:25;;;;;;;;;;;25.80;62.90;;;;;;5059002;28;20028;-63
2021/08/15 10:37:56;;;;;;;6.13;3.25;;;25.90;63.50;;;;;;5063541;28;19994;-63
2021/08/15 10:40:48;;;;;;;9.15;3.58;;;26.00;62.40;;;;;;5062208;28;20135;-63
2021/08/15 10:43:35;;;;;;;7.72;3.45;;;26.20;62.90;;;;;;5051962;28;20040;-63
2021/08/15 10:46:12;;;;;;;7.22;3.80;;;26.30;62.70;;;;;;5053020;28;20127;-62
2021/08/15 10:48:51;;;;;;;6.65;3.47;;;26.40;61.90;;;;;;5063074;28;20032;-62
2021/08/15 10:51:50;;;;;;;7.80;4.18;;;26.50;61.00;;;;;;5054099;28;20048;-62
2021/08/15 10:54:27;;;;;;;6.88;3.70;;;26.50;61.00;;;;;;5054938;28;20025;-63
2021/08/15 10:57:02;;;;;;;10.90;3.45;;;26.50;60.70;;;;;;5064327;28;20059;-62
2021/08/15 10:59:37;;;;;;;6.68;3.15;;;26.50;59.90;;;;;;5057268;28;20021;-62
2021/08/15 11:02:15;;;;;;;7.13;3.67;;;26.50;60.50;;;;;;5056053;28;20041;-63
2021/08/15 11:05:01;;;;;;;5.68;3.80;;;26.50;60.60;;;;;;5056562;28;20040;-62
2021/08/15 11:07:38;;;;;;;8.98;3.85;;;26.40;60.60;;;;;;5053149;28;20110;-62
2021/08/15 11:10:05;;;;;;;8.20;4.22;;;26.40;60.20;;;;;;5050775;28;20029;-63
2021/08/15 11:12:31;;;;;;;8.18;4.50;;;26.40;60.30;;;;;;5035641;28;20045;-62
2021/08/15 11:15:09;;;;;;;5.55;3.50;;;26.30;60.30;;;;;;5053083;28;20401;-63
2021/08/15 11:17:37;;;;;;;6.70;4.13;;;26.30;60.70;;;;;;5058848;28;20032;-63
2021/08/15 11:20:30;;;;;;;6.22;4.10;;;26.20;60.70;;;;;;5062125;28;20136;-62
2021/08/15 11:23:16;;;;;;;9.07;3.63;;;26.20;60.80;;;;;;5057167;28;20060;-62
2021/08/15 11:25:43;;;;;;;7.55;4.30;;;26.20;61.40;;;;;;5057867;28;20033;-62
2021/08/15 11:28:09;;;;;;;7.63;3.60;;;26.20;60.90;;;;;;5063791;28;20025;-62
2021/08/15 11:30:35;;;;;;;6.68;3.67;;;26.20;60.90;;;;;;5062105;28;20052;-62
2021/08/15 11:33:03;;;;;;;8.25;3.35;;;26.20;61.00;;;;;;5070125;28;20075;-62
2021/08/15 11:35:35;;;;;;;7.43;4.00;;;26.20;61.60;;;;;;5067144;28;20126;-62
2021/08/15 11:38:01;;;;;;;6.18;4.00;;;26.20;61.10;;;;;;5059928;28;20035;-63
2021/08/15 11:40:29;;;;;;;7.63;4.22;;;26.30;61.60;;;;;;5059988;28;20025;-62
2021/08/15 11:43:08;;;;;;;6.90;4.32;;;26.30;61.70;;;;;;5066146;28;20524;-62
2021/08/15 11:45:37;;;;;;;7.32;3.78;;;26.30;61.10;;;;;;5061240;28;20032;-62
2021/08/15 11:48:24;;;;;;;7.13;3.85;;;26.40;61.60;;;;;;5065067;28;20086;-63
2021/08/15 11:50:52;;;;;;;7.75;3.90;;;26.50;60.70;;;;;;5055186;28;20049;-62
2021/08/15 11:53:24;;;;;;;10.57;5.13;;;26.50;61.20;;;;;;5056313;28;20390;-62
2021/08/15 11:55:52;;;;;;;9.63;4.25;;;26.60;61.40;;;;;;5063438;28;20039;-62
2021/08/15 11:58:19;;;;;;;5.93;3.90;;;26.60;60.90;;;;;;5068763;28;20112;-62
2021/08/15 12:00:45;;;;;;;7.65;3.85;;;26.60;61.60;;;;;;5060649;28;20028;-62
2021/08/15 12:03:13;;;;;;;10.90;4.95;;;26.70;61.70;;;;;;5065800;28;20132;-62
2021/08/15 12:05:47;;;;;;;6.07;3.53;;;26.70;61.10;;;;;;5067851;28;20021;-62
2021/08/15 12:08:15;;;;;;;7.13;4.20;;;26.80;60.80;;;;;;5060756;28;20431;-62
2021/08/15 12:10:52;;;;;;;7.47;3.95;;;26.80;60.50;;;;;;5068077;28;20045;-62
2021/08/15 12:13:38;;;;;;;5.97;3.85;;;26.80;60.50;;;;;;5066415;28;20033;-63
2021/08/15 12:16:03;;;;;;;8.02;4.40;;;26.80;60.40;;;;;;5054515;28;20062;-63
2021/08/15 12:18:37;;;;;;;7.95;4.65;;;26.90;60.30;;;;;;5063953;28;20064;-62
2021/08/15 12:21:27;;;;;;;8.23;3.80;;;26.90;60.30;;;;;;5052660;28;20059;-63
2021/08/15 12:24:02;;;;;;;7.05;4.40;;;27.00;61.10;;;;;;5061343;28;20119;-63
2021/08/15 12:26:31;;;;;;;10.65;4.60;;;27.10;60.80;;;;;;5052590;28;20027;-63
2021/08/15 12:28:59;;;;;;;8.07;4.25;;;27.20;60.60;;;;;;5051534;28;20632;-63
2021/08/15 12:31:27;;;;;;;11.20;4.45;;;27.30;60.30;;;;;;5044453;28;20067;-63
2021/08/15 12:34:16;;;;;;;5.50;3.88;;;27.30;59.70;;;;;;5057948;28;20032;-63
2021/08/15 12:36:48;;;;;;;7.30;4.60;;;27.40;60.20;;;;;;5065414;28;20139;-63
2021/08/15 12:39:16;;;;;;;6.80;3.75;;;27.40;60.30;;;;;;5034216;28;20134;-63
2021/08/15 12:41:50;;;;;;;6.10;4.10;;;27.40;60.80;;;;;;5058919;28;20036;-64
2021/08/15 12:44:23;;;;;;;8.45;4.25;;;27.50;60.20;;;;;;5071226;28;20017;-63
2021/08/15 12:47:06;;;;;;;6.22;3.78;;;27.50;60.70;;;;;;5070563;28;20025;-63
2021/08/15 12:49:43;;;;;;;6.75;4.32;;;27.50;60.20;;;;;;5056360;28;20039;-63
2021/08/15 12:52:27;;;;;;;6.57;3.95;;;27.50;60.40;;;;;;5061789;28;20036;-63
2021/08/15 12:55:14;;;;;;;10.40;4.97;;;27.60;60.80;;;;;;5069872;28;20024;-63
2021/08/15 12:57:43;;;;;;;7.78;4.38;;;27.70;60.40;;;;;;5063687;28;20045;-63
2021/08/15 13:00:10;;;;;;;9.63;4.75;;;27.80;60.10;;;;;;5068797;28;20029;-63
2021/08/15 13:02:36;;;;;;;8.30;4.80;;;27.80;59.40;;;;;;5063978;28;20422;-62
2021/08/15 13:05:03;;;;;;;8.32;4.32;;;27.90;59.50;;;;;;5051549;28;20021;-62
2021/08/15 13:07:29;;;;;;;10.07;4.78;;;27.90;58.80;;;;;;5060272;28;20016;-62
2021/08/15 13:09:56;;;;;;;8.57;4.72;;;27.90;57.80;;;;;;5058148;28;20033;-62
2021/08/15 13:12:23;;;;;;;7.60;4.20;;;27.90;58.20;;;;;;5060786;28;20127;-62
2021/08/15 13:14:49;;;;;;;7.53;4.05;;;28.00;57.90;;;;;;5065186;28;20031;-62
2021/08/15 13:17:15;;;;;;;9.50;4.28;;;28.00;57.50;;;;;;5046610;28;20479;-62
2021/08/15 13:19:41;;;;;;;8.20;4.90;;;28.00;57.60;;;;;;5051264;28;20040;-63
2021/08/15 13:22:07;;;;;;;7.88;4.10;;;28.00;57.70;;;;;;5063648;28;20024;-64
2021/08/15 13:24:32;;;;;;;7.85;4.32;;;27.90;57.30;;;;;;5051695;28;20055;-63
2021/08/15 13:27:01;;;;;;;7.43;4.35;;;27.80;57.30;;;;;;5060622;28;20074;-62
2021/08/15 13:29:27;;;;;;;7.72;4.32;;;27.80;57.60;;;;;;5060089;28;20029;-62
2021/08/15 13:31:52;;;;;;;6.05;4.28;;;27.80;57.70;;;;;;5065682;28;20488;-63
2021/08/15 13:34:18;;;;;;;7.32;4.65;;;27.80;57.90;;;;;;5068975;28;20028;-63
2021/08/15 13:36:43;;;;;;;7.10;4.50;;;27.80;57.70;;;;;;5062690;28;20485;-62
2021/08/15 13:39:09;;;;;;;7.30;4.53;;;27.80;57.70;;;;;;5059193;28;20102;-63